TAF LFTH
LFTH 280800Z 2809/2909 29020G30KT CAVOK BECMG 2822/2824 31010KT BECMG 2902/2904 32015G25KT=
METAR LFTH
LFTH 280900Z AUTO 28017KT CAVOK 08/M00 Q0998 BECMG 29020G30KT=
LFTH 280830Z AUTO 28016KT CAVOK 08/M01 Q0998 BECMG 29020G30KT=
LFTH 280800Z AUTO 26012KT 230V290 CAVOK 07/M01 Q0998 BECMG 29020G30KT=
LFTH 280730Z AUTO 25011KT CAVOK 06/M00 Q0998 BECMG 29020G30KT=
LFTH 280700Z AUTO 26010KT CAVOK 06/M01 Q0998 BECMG 29020G30KT=
WC LFTH
WS LFTH
WV LFTH